Terminal Aerodrome Forecast
Issued by NWS

Home | Current Version | Previous Version | Text Only | Print | Product List | Glossary On
Versions: 1 2 3 4 5 6 7 8 9 10 11 12 13 14 15 16 17 18 19
000
FTUS45 KFGZ 210500
TAFGCN
TAF
KGCN 210520Z 2106/2206 VRB03KT P6SM SCT110
     FM211900 21009KT P6SM VCTS SCT060CB BKN100
      TEMPO 2121/2201 VRB15G25KT 4SM TSRA BKN040CB=

USA.gov is the U.S. government's official web portal to all federal, state and local government web resources and services.